Flight Track Log - Related Links

Times and Time Zones

All times are in EDT time to prevent confusion due to time zone crossing. See the ASQ4352 flight status page for this flight to view local times or setup timezone preferences in your user account.

Time Position Orientation Groundspeed Altitude Reporting Facility
EDT Latitude Longitude Course Direction KTS MPH feet Rate Location/Type
Sat 06:35:00 PM 40.6833 -74.1833 194° South 158 182 500  Level New York TRACON
Sat 06:35:54 PM 40.6333 -74.2000 194° South 196 226 2,000 1,947 Climbing New York TRACON
Sat 06:36:54 PM 40.6333 -74.2667 270° West 224 258 4,200 1,850 Climbing New York TRACON
Sat 06:37:54 PM 40.6667 -74.3500 298° West 258 297 5,700 1,800 Climbing New York TRACON
Sat 06:38:54 PM 40.7333 -74.3833 339° North 272 313 7,800 2,100 Climbing New York TRACON
Sat 06:39:54 PM 40.8000 -74.4333 330° Northwest 274 315 9,900 1,150 Climbing New York TRACON
Sat 06:40:54 PM 40.8667 -74.4833 330° Northwest 320 368 10,100 330 Climbing New York TRACON
Sat 06:41:43 PM 40.9328 -74.5367 329° Northwest 357 411 10,500 1,458 Climbing New York Center
Sat 06:42:41 PM 41.0242 -74.6078 330° Northwest 364 419 12,700 1,881 Climbing New York Center
Sat 06:43:41 PM 41.1017 -74.6644 331° Northwest 353 406 14,200 1,686 Climbing New York Center
Sat 06:44:42 PM 41.1689 -74.7675 311° West 337 388 16,100 1,672 Climbing New York Center
Sat 06:45:43 PM 41.2094 -74.8608 300° West 332 382 17,600 1,831 Climbing New York Center
Sat 06:46:40 PM 41.2519 -74.9600 300° West 322 371 19,700 1,780 Climbing New York Center
Sat 06:47:41 PM 41.2961 -75.0650 299° West 317 365 21,100 1,339 Climbing New York Center
Sat 06:48:41 PM 41.3400 -75.1700 299° West 317 365 22,400 1,240 Climbing New York Center
Sat 06:49:42 PM 41.3900 -75.2811 301° West 331 381 23,600 1,230 Climbing New York Center
Sat 06:50:43 PM 41.4375 -75.3978 299° West 345 397 24,900 1,240 Climbing New York Center
Sat 06:51:43 PM 41.4831 -75.5089 299° West 345 397 26,100 1,250 Climbing New York Center
Sat 06:52:43 PM 41.5178 -75.6333 290° West 345 397 27,400 1,271 Climbing New York Center
Sat 06:53:41 PM 41.5525 -75.7494 292° West 345 397 28,600 1,050 Climbing New York Center
Sat 06:54:43 PM 41.5869 -75.8714 291° West 345 397 29,500 700 Climbing New York Center
Sat 06:55:41 PM 41.6211 -75.9933 291° West 345 397 30,000 610 Climbing New York Center
Sat 06:56:41 PM 41.6625 -76.1408 291° West 374 430 30,700 1,150 Climbing New York Center
Sat 06:57:41 PM 41.6983 -76.2686 291° West 374 430 32,300 1,537 Climbing New York Center
Sat 06:58:42 PM 41.7339 -76.3967 290° West 374 430 33,800 1,279 Climbing New York Center
Sat 06:59:43 PM 41.7642 -76.5050 291° West 364 419 34,900 885 Climbing New York Center
Sat 07:00:44 PM 41.7997 -76.6306 291° West 358 412 35,600 555 Climbing New York Center
Sat 07:01:42 PM 41.8331 -76.7558 290° West 358 412 36,000 164 Climbing New York Center
Sat 07:03:10 PM 41.8950 -76.9706 291° West 372 428 36,000  Level Cleveland Center
Sat 07:04:10 PM 41.9306 -77.1108 289° West 391 450 36,000  Level Cleveland Center
Sat 07:05:10 PM 41.9700 -77.2511 291° West 403 464 36,000  Level Cleveland Center
Sat 07:06:10 PM 42.0053 -77.3919 289° West 403 464 36,000  Level Cleveland Center
Sat 07:07:10 PM 42.0447 -77.5325 291° West 403 464 36,000  Level Cleveland Center
Sat 07:08:10 PM 42.0525 -77.6775 274° West 386 444 36,000  Level Cleveland Center
Sat 07:09:10 PM 42.0200 -77.7908 249° West 373 429 36,000  Level Cleveland Center
Sat 07:10:10 PM 41.9708 -77.9186 243° Southwest 367 422 36,000  Level Cleveland Center
Sat 07:11:10 PM 41.9236 -78.0492 244° Southwest 378 435 36,000  Level Cleveland Center
Sat 07:12:10 PM 41.8744 -78.1767 243° Southwest 390 449 36,000  Level Cleveland Center
Sat 07:13:10 PM 41.8269 -78.3064 244° Southwest 395 455 36,000  Level Cleveland Center
Sat 07:14:10 PM 41.7814 -78.4333 244° Southwest 390 449 36,000  Level Cleveland Center
Sat 07:15:10 PM 41.7339 -78.5631 244° Southwest 390 449 36,000  Level Cleveland Center
Sat 07:16:10 PM 41.6858 -78.6925 244° Southwest 390 449 36,000  Level Cleveland Center
Sat 07:17:10 PM 41.6381 -78.8189 243° Southwest 390 449 36,000  Level Cleveland Center
Sat 07:18:10 PM 41.5919 -78.9478 244° Southwest 390 449 36,000  Level Cleveland Center
Sat 07:19:10 PM 41.5397 -79.0906 244° Southwest 390 449 36,000  Level Cleveland Center
Sat 07:20:10 PM 41.4911 -79.2192 243° Southwest 390 449 36,000  Level Cleveland Center
Sat 07:21:10 PM 41.4447 -79.3478 244° Southwest 390 449 36,000  Level Cleveland Center
Sat 07:22:10 PM 41.3958 -79.4731 243° Southwest 390 449 36,000  Level Cleveland Center
Sat 07:23:10 PM 41.3469 -79.5986 243° Southwest 390 449 36,000  Level Cleveland Center
Sat 07:24:10 PM 41.2981 -79.7264 243° Southwest 390 449 36,000  Level Cleveland Center
Sat 07:25:10 PM 41.2489 -79.8569 243° Southwest 390 449 36,000  Level Cleveland Center
Sat 07:26:10 PM 41.1997 -79.9814 242° Southwest 390 449 36,000  Level Cleveland Center
Sat 07:27:10 PM 41.1583 -80.0950 244° Southwest 383 441 36,000  Level Cleveland Center
Sat 07:28:10 PM 41.1089 -80.2194 242° Southwest 388 447 36,000  Level Cleveland Center
Sat 07:29:10 PM 41.0592 -80.3436 242° Southwest 388 447 36,000  Level Cleveland Center
Sat 07:30:10 PM 41.0114 -80.4675 243° Southwest 388 447 36,000  Level Cleveland Center
Sat 07:31:10 PM 40.9614 -80.5914 242° Southwest 388 447 36,000  Level Cleveland Center
Sat 07:32:10 PM 40.9133 -80.7150 243° Southwest 388 447 36,000  Level Cleveland Center
Sat 07:33:10 PM 40.8653 -80.8383 243° Southwest 383 441 36,000  Level Cleveland Center
Sat 07:34:10 PM 40.8169 -80.9617 243° Southwest 388 447 36,000 -480 Level Cleveland Center
Sat 07:36:30 PM 40.7011 -81.2483 242° Southwest 385 443 34,400 -896 Descending Indianapolis Center
Sat 07:37:31 PM 40.6500 -81.3750 242° Southwest 386 444 33,000 -1,131 Descending Indianapolis Center
Sat 07:38:32 PM 40.5983 -81.5028 242° Southwest 389 448 32,100 -492 Descending Indianapolis Center
Sat 07:39:33 PM 40.5469 -81.6292 242° Southwest 388 447 32,000 -49 Descending Indianapolis Center
Sat 07:40:34 PM 40.4956 -81.7553 242° Southwest 387 445 32,000  Level Indianapolis Center
Sat 07:41:35 PM 40.4342 -81.9042 242° Southwest 393 452 32,000  Level Indianapolis Center
Sat 07:42:36 PM 40.3822 -82.0314 242° Southwest 392 451 32,000  Level Indianapolis Center
Sat 07:43:37 PM 40.3300 -82.1583 242° Southwest 392 451 32,000  Level Indianapolis Center
Sat 07:44:39 PM 40.2772 -82.2856 241° Southwest 392 451 32,000  Level Indianapolis Center
Sat 07:45:40 PM 40.2289 -82.4033 242° Southwest 395 455 32,000  Level Indianapolis Center
Sat 07:46:41 PM 40.1756 -82.5286 241° Southwest 392 451 32,000 -639 Level Indianapolis Center
Sat 07:47:42 PM 40.1228 -82.6553 241° Southwest 393 452 30,700 -1,770 Descending Indianapolis Center
Sat 07:48:43 PM 40.0700 -82.7825 242° Southwest 395 455 28,400 -2,459 Descending Indianapolis Center
Sat 07:49:44 PM 40.0175 -82.9100 242° Southwest 395 455 25,700 -2,164 Descending Indianapolis Center
Sat 07:50:45 PM 39.9644 -83.0350 241° Southwest 390 449 24,000 -836 Descending Indianapolis Center
Sat 07:51:46 PM 39.9139 -83.1550 241° Southwest 376 433 24,000  Level Indianapolis Center
Sat 07:52:47 PM 39.8619 -83.2789 241° Southwest 383 441 24,000 -98 Level Indianapolis Center
Sat 07:53:49 PM 39.8081 -83.4061 241° Southwest 390 449 23,800 -1,220 Descending Indianapolis Center
Sat 07:54:50 PM 39.7533 -83.5328 241° Southwest 385 443 21,500 -2,262 Descending Indianapolis Center
Sat 07:55:51 PM 39.7025 -83.6522 241° Southwest 376 433 19,200 -2,262 Descending Indianapolis Center
Sat 07:56:52 PM 39.6533 -83.7667 241° Southwest 361 415 16,900 -2,244 Descending Indianapolis Center
Sat 07:57:54 PM 39.6053 -83.8786 241° Southwest 354 407 14,600 -2,213 Descending Indianapolis Center
Sat 07:58:54 PM 39.5456 -83.9744 231° Southwest 340 391 12,400 -1,770 Descending Indianapolis Center
Sat 07:59:56 PM 39.4794 -84.0658 227° Southwest 344 396 11,000 -829 Descending Indianapolis Center
Sat 08:00:57 PM 39.4161 -84.1558 228° Southwest 339 390 10,700 -732 Descending Indianapolis Center
Sat 08:01:59 PM 39.3739 -84.2603 242° Southwest 280 322 9,500 -1,268 Descending Indianapolis Center
Sat 08:03:00 PM 39.3436 -84.3408 244° Southwest 252 290 8,100 -1,525 Descending Indianapolis Center
Sat 08:04:01 PM 39.3156 -84.4214 246° West 246 283 6,400 -1,033 Descending Indianapolis Center
Sat 08:05:02 PM 39.2861 -84.5000 244° Southwest 242 278 6,000 -344 Descending Indianapolis Center
Sat 08:06:03 PM 39.2569 -84.5794 245° Southwest 243 280 5,700 -984 Descending Indianapolis Center
Sat 08:07:04 PM 39.2264 -84.6508 241° Southwest 232 267 4,000 -1,643 Descending Indianapolis Center
Sat 08:07:27 PM 39.2000 -84.6500 179° South 245 282 3,400 -1,301 Descending Cincinnati TRACON
Sat 08:08:27 PM 39.1333 -84.6667 191° South 237 273 2,200 -1,200 Descending Cincinnati TRACON

Login

Don't have an account? Register now (free) for customized features, flight alerts, and more!